createdAt,value
2018-09-19T00:00:24.536Z,23.87
2018-09-19T00:02:48.440Z,24.11
2018-09-19T00:05:12.371Z,23.82
2018-09-19T00:07:36.241Z,23.82
2018-09-19T00:10:00.144Z,23.60
2018-09-19T00:12:24.027Z,23.64
2018-09-19T00:14:47.904Z,23.82
2018-09-19T00:17:11.841Z,23.53
2018-09-19T00:19:35.730Z,23.51
2018-09-19T00:21:59.620Z,23.59
2018-09-19T00:24:23.543Z,23.43
2018-09-19T00:26:47.460Z,23.49
2018-09-19T00:29:11.374Z,23.30
2018-09-19T00:31:35.286Z,23.14
2018-09-19T00:33:59.162Z,23.13
2018-09-19T00:36:23.619Z,22.88
2018-09-19T00:38:47.509Z,22.86
2018-09-19T00:41:11.428Z,22.80
2018-09-19T00:43:35.359Z,23.10
2018-09-19T00:45:59.258Z,23.13
2018-09-19T00:48:23.131Z,22.92
2018-09-19T00:50:47.053Z,22.67
2018-09-19T00:53:10.961Z,22.93
2018-09-19T00:55:34.872Z,22.77
2018-09-19T00:57:58.873Z,22.81
2018-09-19T01:00:22.752Z,22.64
2018-09-19T01:02:46.635Z,22.58
2018-09-19T01:05:10.573Z,22.65
2018-09-19T01:07:34.497Z,22.42
2018-09-19T01:09:58.445Z,22.48
2018-09-19T01:12:22.354Z,22.59
2018-09-19T01:14:46.320Z,22.72
2018-09-19T01:17:10.249Z,22.75
2018-09-19T01:19:34.164Z,22.23
2018-09-19T01:21:58.094Z,22.25
2018-09-19T01:24:21.977Z,22.45
2018-09-19T01:26:45.913Z,22.35
2018-09-19T01:29:09.784Z,22.15
2018-09-19T01:31:33.680Z,22.25
2018-09-19T01:33:57.786Z,22.27
2018-09-19T01:36:21.666Z,22.11
2018-09-19T01:38:45.639Z,22.27
2018-09-19T01:41:09.579Z,22.27
2018-09-19T01:43:33.565Z,22.06
2018-09-19T01:45:57.535Z,22.14
2018-09-19T01:48:21.736Z,22.19
2018-09-19T01:50:45.783Z,22.03
2018-09-19T01:53:09.788Z,21.93
2018-09-19T01:55:33.781Z,22.01
2018-09-19T01:57:57.771Z,21.96
2018-09-19T02:00:21.727Z,21.68
2018-09-19T02:02:45.827Z,21.99
2018-09-19T02:05:09.858Z,21.81
2018-09-19T02:07:33.799Z,21.22
2018-09-19T02:09:57.829Z,21.51
2018-09-19T02:12:21.711Z,21.68
2018-09-19T02:14:45.757Z,21.51
2018-09-19T02:17:09.630Z,21.56
2018-09-19T02:19:33.589Z,21.51
2018-09-19T02:21:57.555Z,21.53
2018-09-19T02:24:21.417Z,21.24
2018-09-19T02:26:45.342Z,21.43
2018-09-19T02:29:09.410Z,21.46
2018-09-19T02:31:33.510Z,20.88
2018-09-19T02:33:57.410Z,20.93
2018-09-19T02:36:25.353Z,21.04
2018-09-19T02:38:49.483Z,21.14
2018-09-19T02:41:13.453Z,21.14
2018-09-19T02:43:37.361Z,20.50
2018-09-19T02:46:01.283Z,20.81
2018-09-19T02:48:25.227Z,20.89
2018-09-19T02:50:49.095Z,21.07
2018-09-19T02:53:12.989Z,20.92
2018-09-19T02:55:36.858Z,20.61
2018-09-19T02:58:00.794Z,20.85
2018-09-19T03:00:24.704Z,20.84
2018-09-19T03:02:48.679Z,20.75
2018-09-19T03:05:12.585Z,20.87
2018-09-19T03:07:36.540Z,20.49
2018-09-19T03:10:00.463Z,20.66
2018-09-19T03:12:24.413Z,20.76
2018-09-19T03:14:48.300Z,20.49
2018-09-19T03:17:12.238Z,20.68
2018-09-19T03:19:36.131Z,20.61
2018-09-19T03:21:59.999Z,20.59
2018-09-19T03:24:24.003Z,20.78
2018-09-19T03:26:47.859Z,20.75
2018-09-19T03:29:11.759Z,20.54
2018-09-19T03:31:35.679Z,20.61
2018-09-19T03:33:59.570Z,20.48
2018-09-19T03:36:23.480Z,20.53
2018-09-19T03:38:47.421Z,20.55
2018-09-19T03:41:11.364Z,20.35
2018-09-19T03:43:35.254Z,20.34
2018-09-19T03:45:59.124Z,20.37
2018-09-19T03:48:23.056Z,19.94
2018-09-19T03:50:46.999Z,20.06
2018-09-19T03:53:10.887Z,20.14
2018-09-19T03:55:34.763Z,19.86
2018-09-19T03:57:58.711Z,19.24
2018-09-19T04:00:22.570Z,19.64
2018-09-19T04:02:46.468Z,19.72
2018-09-19T04:05:10.391Z,19.55
2018-09-19T04:07:34.323Z,19.61
2018-09-19T04:09:58.200Z,19.38
2018-09-19T04:12:22.120Z,19.84
2018-09-19T04:14:46.044Z,19.49
2018-09-19T04:17:09.993Z,19.56
2018-09-19T04:19:33.934Z,19.75
2018-09-19T04:21:57.802Z,19.32
2018-09-19T04:24:21.727Z,19.54
2018-09-19T04:26:45.677Z,19.45
2018-09-19T04:29:09.569Z,19.66
2018-09-19T04:31:33.510Z,19.37
2018-09-19T04:33:57.400Z,19.41
2018-09-19T04:36:21.314Z,19.53
2018-09-19T04:38:45.169Z,19.54
2018-09-19T04:41:09.165Z,19.58
2018-09-19T04:43:33.136Z,19.50
2018-09-19T04:45:57.041Z,19.53
2018-09-19T04:48:21.057Z,19.44
2018-09-19T04:50:44.934Z,19.38
2018-09-19T04:53:09.140Z,19.40
2018-09-19T04:55:33.042Z,19.44
2018-09-19T04:57:56.984Z,19.50
2018-09-19T05:00:20.908Z,19.43
2018-09-19T05:02:44.798Z,19.43
2018-09-19T05:05:08.725Z,19.27
2018-09-19T05:07:32.633Z,19.31
2018-09-19T05:09:56.561Z,19.45
2018-09-19T05:12:20.491Z,19.53
2018-09-19T05:14:44.394Z,19.58
2018-09-19T05:17:08.286Z,19.53
2018-09-19T05:19:32.212Z,19.51
2018-09-19T05:21:56.126Z,19.41
2018-09-19T05:24:20.033Z,19.39
2018-09-19T05:26:43.903Z,19.29
2018-09-19T05:29:07.881Z,19.37
2018-09-19T05:31:31.921Z,19.28
2018-09-19T05:33:55.784Z,19.48
2018-09-19T05:36:19.700Z,19.37
2018-09-19T05:38:43.610Z,19.43
2018-09-19T05:41:07.785Z,19.37
2018-09-19T05:43:31.657Z,19.52
2018-09-19T05:45:55.659Z,19.36
2018-09-19T05:48:19.659Z,19.30
2018-09-19T05:50:43.525Z,19.26
2018-09-19T05:53:07.437Z,19.57
2018-09-19T05:55:31.315Z,19.64
2018-09-19T05:57:55.325Z,19.60
2018-09-19T06:00:19.223Z,19.78
2018-09-19T06:02:43.085Z,19.67
2018-09-19T06:05:07.233Z,19.52
2018-09-19T06:07:31.142Z,19.48
2018-09-19T06:09:55.054Z,19.53
2018-09-19T06:12:19.061Z,19.73
2018-09-19T06:14:43.079Z,19.91
2018-09-19T06:17:07.092Z,19.88
2018-09-19T06:19:30.971Z,19.80
2018-09-19T06:21:54.911Z,19.81
2018-09-19T06:24:18.838Z,19.89
2018-09-19T06:26:42.720Z,19.81
2018-09-19T06:29:06.789Z,19.76
2018-09-19T06:31:30.686Z,19.91
2018-09-19T06:33:54.567Z,19.63
2018-09-19T06:36:18.584Z,19.94
2018-09-19T06:38:42.502Z,19.49
2018-09-19T06:41:06.372Z,19.76
2018-09-19T06:43:30.439Z,19.53
2018-09-19T06:45:54.339Z,19.57
2018-09-19T06:48:18.294Z,19.41
2018-09-19T06:50:42.315Z,19.63
2018-09-19T06:53:06.329Z,19.49
2018-09-19T06:55:30.185Z,19.77
2018-09-19T06:57:54.097Z,19.65
2018-09-19T07:00:17.992Z,19.48
2018-09-19T07:02:41.897Z,19.87
2018-09-19T07:05:05.968Z,20.02
2018-09-19T07:07:29.831Z,19.80
2018-09-19T07:09:53.723Z,20.03
2018-09-19T07:12:17.633Z,20.13
2018-09-19T07:14:41.525Z,20.36
2018-09-19T07:17:05.491Z,20.16
2018-09-19T07:19:29.504Z,20.41
2018-09-19T07:21:53.558Z,20.37
2018-09-19T07:24:17.446Z,20.18
2018-09-19T07:26:41.583Z,20.75
2018-09-19T07:29:05.674Z,20.89
2018-09-19T07:31:29.533Z,20.54
2018-09-19T07:33:53.493Z,20.27
2018-09-19T07:36:17.394Z,20.77
2018-09-19T07:38:41.388Z,20.59
2018-09-19T07:41:05.269Z,20.75
2018-09-19T07:43:29.341Z,20.80
2018-09-19T07:45:53.349Z,20.84
2018-09-19T07:48:17.287Z,20.97
2018-09-19T07:50:41.202Z,21.05
2018-09-19T07:53:05.184Z,21.19
2018-09-19T07:55:29.121Z,21.19
2018-09-19T07:57:53.002Z,21.44
2018-09-19T08:00:16.932Z,21.37
2018-09-19T08:02:40.840Z,21.56
2018-09-19T08:05:04.913Z,21.58
2018-09-19T08:07:28.819Z,21.62
2018-09-19T08:09:52.749Z,21.34
2018-09-19T08:12:16.674Z,21.49
2018-09-19T08:14:40.559Z,21.67
2018-09-19T08:17:04.484Z,21.54
2018-09-19T08:19:28.398Z,21.69
2018-09-19T08:21:52.600Z,22.01
2018-09-19T08:24:16.498Z,21.74
2018-09-19T08:26:40.384Z,22.14
2018-09-19T08:29:04.439Z,22.01
2018-09-19T08:31:28.339Z,21.70
2018-09-19T08:33:52.368Z,22.22
2018-09-19T08:36:16.262Z,22.20
2018-09-19T08:38:40.196Z,22.64
2018-09-19T08:41:04.070Z,22.50
2018-09-19T08:43:27.983Z,22.58
2018-09-19T08:45:51.888Z,22.78
2018-09-19T08:48:15.804Z,22.68
2018-09-19T08:50:39.682Z,23.18
2018-09-19T08:53:04.042Z,23.07
2018-09-19T08:55:27.912Z,22.89
2018-09-19T08:57:51.834Z,23.09
2018-09-19T09:00:15.710Z,23.03
2018-09-19T09:02:39.862Z,23.45
2018-09-19T09:05:03.749Z,23.55
2018-09-19T09:07:27.671Z,23.96
2018-09-19T09:09:51.619Z,23.87
2018-09-19T09:12:15.680Z,23.74
2018-09-19T09:14:39.591Z,23.81
2018-09-19T09:17:03.470Z,23.95
2018-09-19T09:19:27.597Z,24.14
2018-09-19T09:21:51.487Z,24.50
2018-09-19T09:24:15.446Z,24.28
2018-09-19T09:26:39.573Z,24.56
2018-09-19T09:29:03.474Z,24.78
2018-09-19T09:31:27.401Z,25.06
2018-09-19T09:33:51.482Z,24.85
2018-09-19T09:36:15.449Z,25.13
2018-09-19T09:38:39.348Z,25.14
2018-09-19T09:41:03.243Z,25.46
2018-09-19T09:43:27.220Z,24.83
2018-09-19T09:45:51.176Z,25.32
2018-09-19T09:48:15.052Z,25.82
2018-09-19T09:50:38.925Z,25.73
2018-09-19T09:53:02.892Z,25.49
2018-09-19T09:55:26.782Z,26.26
2018-09-19T09:57:50.673Z,26.13
2018-09-19T10:00:19.017Z,26.85
2018-09-19T10:02:42.908Z,26.78
2018-09-19T10:05:06.821Z,26.33
2018-09-19T10:07:30.833Z,26.94
2018-09-19T10:09:54.781Z,26.73
2018-09-19T10:12:18.742Z,27.12
2018-09-19T10:14:42.627Z,27.36
2018-09-19T10:17:06.661Z,27.04
2018-09-19T10:19:30.810Z,26.47
2018-09-19T10:21:54.704Z,27.03
2018-09-19T10:24:18.710Z,27.13
2018-09-19T10:26:42.619Z,27.54
2018-09-19T10:29:06.530Z,27.43
2018-09-19T10:31:30.455Z,27.83
2018-09-19T10:33:54.352Z,27.76
2018-09-19T10:36:18.362Z,28.11
2018-09-19T10:38:42.271Z,27.52
2018-09-19T10:41:06.304Z,27.60
2018-09-19T10:43:30.325Z,27.71
2018-09-19T10:45:54.207Z,27.17
2018-09-19T10:48:18.127Z,27.86
2018-09-19T10:50:42.063Z,28.71
2018-09-19T10:53:06.003Z,28.20
2018-09-19T10:55:30.015Z,28.47
2018-09-19T10:57:53.904Z,28.52
2018-09-19T11:00:17.808Z,28.12
2018-09-19T11:02:41.830Z,28.53
2018-09-19T11:05:05.737Z,28.10
2018-09-19T11:07:29.650Z,28.05
2018-09-19T11:09:53.691Z,28.44
2018-09-19T11:12:17.738Z,28.80
2018-09-19T11:14:41.644Z,29.47
2018-09-19T11:17:05.644Z,29.07
2018-09-19T11:19:29.713Z,28.93
2018-09-19T11:21:53.718Z,29.63
2018-09-19T11:24:17.617Z,29.23
2018-09-19T11:26:41.571Z,29.17
2018-09-19T11:29:05.503Z,29.31
2018-09-19T11:31:29.413Z,29.09
2018-09-19T11:33:53.379Z,29.58
2018-09-19T11:36:17.251Z,29.52
2018-09-19T11:38:41.204Z,30.20
2018-09-19T11:41:05.357Z,30.36
2018-09-19T11:43:29.243Z,30.38
2018-09-19T11:45:53.174Z,29.79
2018-09-19T11:48:17.108Z,30.06
2018-09-19T11:50:41.094Z,29.55
2018-09-19T11:53:08.982Z,30.65
2018-09-19T11:55:32.861Z,30.08
2018-09-19T11:57:56.923Z,30.48
2018-09-19T12:00:20.814Z,30.67
2018-09-19T12:02:44.689Z,30.34
2018-09-19T12:05:08.618Z,30.23
2018-09-19T12:07:33.701Z,31.23
2018-09-19T12:09:57.667Z,31.36
2018-09-19T12:12:21.631Z,31.13
2018-09-19T12:14:45.536Z,32.17
2018-09-19T12:17:09.448Z,33.35
2018-09-19T12:19:33.377Z,37.40
2018-09-19T12:21:57.379Z,38.38
2018-09-19T12:24:21.246Z,39.17
2018-09-19T12:26:45.157Z,38.02
2018-09-19T12:29:09.174Z,40.16
2018-09-19T12:31:33.061Z,41.34
2018-09-19T12:33:57.066Z,39.92
2018-09-19T12:36:21.064Z,41.23
2018-09-19T12:38:44.959Z,41.51
2018-09-19T12:41:08.867Z,40.41
2018-09-19T12:43:32.853Z,43.54
2018-09-19T12:45:56.740Z,41.61
2018-09-19T12:48:20.652Z,42.81
2018-09-19T12:50:44.588Z,41.98
2018-09-19T12:53:08.535Z,42.63
2018-09-19T12:55:32.531Z,42.60
2018-09-19T12:57:56.470Z,42.52
2018-09-19T13:00:20.399Z,42.17
2018-09-19T13:02:44.397Z,44.82
2018-09-19T13:05:08.423Z,43.94
2018-09-19T13:07:32.423Z,42.92
2018-09-19T13:09:56.340Z,43.29
2018-09-19T13:12:20.218Z,41.46
2018-09-19T13:14:44.151Z,43.44
2018-09-19T13:17:08.149Z,44.22
2018-09-19T13:19:32.060Z,43.51
2018-09-19T13:21:55.974Z,43.39
2018-09-19T13:24:20.163Z,45.88
2018-09-19T13:26:44.100Z,44.92
2018-09-19T13:29:07.958Z,43.48
2018-09-19T13:31:31.860Z,44.71
2018-09-19T13:33:55.768Z,44.06
2018-09-19T13:36:19.796Z,44.52
2018-09-19T13:38:43.666Z,43.36
2018-09-19T13:41:07.777Z,42.62
2018-09-19T13:43:31.802Z,45.21
2018-09-19T13:45:55.691Z,43.44
2018-09-19T13:48:19.551Z,44.53
2018-09-19T13:51:18.109Z,41.74
2018-09-19T13:53:42.160Z,45.87
2018-09-19T13:56:06.046Z,42.70
2018-09-19T13:58:29.951Z,43.39
2018-09-19T14:00:54.029Z,41.43
2018-09-19T14:03:17.924Z,41.26
2018-09-19T14:05:41.839Z,41.68
2018-09-19T14:08:06.274Z,40.92
2018-09-19T14:10:30.138Z,41.31
2018-09-19T14:12:54.157Z,40.05
2018-09-19T14:15:18.064Z,41.75
2018-09-19T14:17:41.952Z,41.53
2018-09-19T14:20:05.916Z,40.03
2018-09-19T14:22:29.829Z,42.07
2018-09-19T14:24:53.760Z,42.37
2018-09-19T14:27:17.708Z,42.24
2018-09-19T14:29:41.581Z,42.53
2018-09-19T14:32:05.487Z,41.31
2018-09-19T14:34:29.406Z,40.41
2018-09-19T14:36:53.318Z,40.15
2018-09-19T14:39:17.211Z,39.97
2018-09-19T14:41:41.166Z,39.52
2018-09-19T14:44:05.184Z,41.19
2018-09-19T14:46:29.083Z,40.39
2018-09-19T14:48:53.005Z,40.95
2018-09-19T14:51:16.951Z,39.68
2018-09-19T14:53:40.854Z,38.40
2018-09-19T14:56:04.942Z,41.68
2018-09-19T14:58:29.009Z,39.89
2018-09-19T15:00:52.935Z,39.04
2018-09-19T15:03:16.976Z,38.46
2018-09-19T15:05:40.868Z,38.99
2018-09-19T15:08:04.778Z,37.36
2018-09-19T15:10:28.727Z,37.44
2018-09-19T15:12:52.661Z,37.93
2018-09-19T15:15:16.734Z,38.51
2018-09-19T15:17:40.819Z,37.31
2018-09-19T15:20:04.780Z,37.33
2018-09-19T15:22:28.688Z,37.11
2018-09-19T15:24:52.600Z,38.33
2018-09-19T15:27:16.551Z,38.88
2018-09-19T15:29:40.508Z,39.32
2018-09-19T15:32:04.491Z,38.46
2018-09-19T15:34:28.490Z,37.74
2018-09-19T15:36:52.450Z,35.56
2018-09-19T15:39:16.329Z,37.10
2018-09-19T15:41:40.369Z,36.20
2018-09-19T15:44:04.349Z,36.48
2018-09-19T15:46:28.298Z,37.50
2018-09-19T15:48:52.300Z,37.24
2018-09-19T15:51:16.210Z,37.58
2018-09-19T15:53:40.153Z,36.48
2018-09-19T15:56:04.067Z,37.02
2018-09-19T15:58:27.983Z,36.40
2018-09-19T16:00:51.928Z,36.29
2018-09-19T16:03:15.874Z,35.71
2018-09-19T16:05:39.882Z,35.08
2018-09-19T16:08:03.787Z,34.47
2018-09-19T16:10:27.744Z,35.24
2018-09-19T16:12:51.720Z,35.15
2018-09-19T16:15:15.627Z,34.99
2018-09-19T16:17:39.588Z,33.47
2018-09-19T16:20:03.541Z,32.04
2018-09-19T16:22:27.457Z,31.86
2018-09-19T16:24:51.612Z,31.66
2018-09-19T16:27:15.521Z,31.98
2018-09-19T16:29:39.495Z,32.21
2018-09-19T16:32:03.536Z,32.27
2018-09-19T16:34:27.564Z,31.47
2018-09-19T16:36:51.612Z,31.87
2018-09-19T16:39:15.511Z,32.04
2018-09-19T16:41:39.444Z,31.88
2018-09-19T16:44:03.470Z,31.02
2018-09-19T16:46:27.360Z,31.11
2018-09-19T16:48:51.292Z,30.88
2018-09-19T16:51:15.269Z,31.07
2018-09-19T16:53:39.247Z,31.11
2018-09-19T16:56:03.264Z,31.08
2018-09-19T16:58:27.208Z,30.78
2018-09-19T17:00:51.174Z,31.02
2018-09-19T17:03:15.392Z,30.88
2018-09-19T17:05:39.319Z,31.20
2018-09-19T17:08:03.281Z,30.63
2018-09-19T17:10:27.144Z,31.03
2018-09-19T17:12:51.056Z,31.26
2018-09-19T17:15:15.093Z,30.82
2018-09-19T17:17:39.614Z,30.94
2018-09-19T17:20:03.576Z,30.99
2018-09-19T17:22:27.553Z,30.98
2018-09-19T17:24:51.464Z,30.94
2018-09-19T17:27:15.541Z,30.91
2018-09-19T17:29:39.439Z,30.79
2018-09-19T17:32:03.579Z,30.84
2018-09-19T17:34:27.723Z,30.74
2018-09-19T17:36:51.672Z,30.79
2018-09-19T17:39:15.738Z,30.79
2018-09-19T17:41:39.692Z,30.73
2018-09-19T17:44:03.644Z,30.59
2018-09-19T17:46:27.678Z,30.61
2018-09-19T17:48:51.637Z,30.59
2018-09-19T17:51:15.927Z,30.39
2018-09-19T17:53:39.846Z,30.38
2018-09-19T17:56:03.830Z,30.27
2018-09-19T17:58:27.919Z,30.15
2018-09-19T18:00:51.925Z,30.08
2018-09-19T18:03:15.848Z,29.97
2018-09-19T18:05:39.893Z,29.81
2018-09-19T18:08:03.921Z,29.99
2018-09-19T18:10:27.894Z,29.76
2018-09-19T18:12:51.816Z,30.02
2018-09-19T18:15:15.829Z,29.79
2018-09-19T18:17:39.804Z,29.49
2018-09-19T18:20:03.804Z,29.63
2018-09-19T18:22:27.765Z,29.53
2018-09-19T18:24:51.723Z,29.51
2018-09-19T18:27:15.665Z,29.19
2018-09-19T18:29:39.630Z,29.38
2018-09-19T18:32:03.638Z,29.32
2018-09-19T18:34:27.618Z,29.27
2018-09-19T18:36:51.717Z,29.20
2018-09-19T18:39:15.677Z,28.96
2018-09-19T18:41:39.595Z,28.77
2018-09-19T18:44:03.682Z,28.77
2018-09-19T18:46:27.608Z,28.82
2018-09-19T18:48:51.573Z,28.73
2018-09-19T18:51:15.538Z,28.30
2018-09-19T18:53:39.459Z,28.60
2018-09-19T18:56:03.365Z,28.68
2018-09-19T18:58:27.344Z,28.51
2018-09-19T19:00:51.296Z,28.48
2018-09-19T19:03:15.375Z,28.69
2018-09-19T19:05:39.348Z,28.35
2018-09-19T19:08:04.223Z,28.36
2018-09-19T19:10:28.080Z,28.35
2018-09-19T19:12:52.024Z,28.14
2018-09-19T19:15:15.932Z,28.22
2018-09-19T19:17:40.059Z,28.06
2018-09-19T19:20:04.099Z,28.01
2018-09-19T19:22:28.038Z,28.15
2018-09-19T19:24:51.953Z,28.27
2018-09-19T19:27:15.887Z,28.00
2018-09-19T19:29:39.813Z,28.10
2018-09-19T19:32:03.763Z,27.94
2018-09-19T19:34:27.712Z,27.73
2018-09-19T19:36:51.650Z,27.64
2018-09-19T19:39:15.603Z,27.79
2018-09-19T19:41:39.504Z,27.83
2018-09-19T19:44:03.505Z,27.87
2018-09-19T19:46:27.501Z,27.64
2018-09-19T19:48:51.410Z,27.67
2018-09-19T19:51:15.355Z,27.23
2018-09-19T19:53:39.259Z,27.40
2018-09-19T19:56:03.241Z,27.48
2018-09-19T19:58:27.307Z,27.42
2018-09-19T20:00:51.271Z,27.21
2018-09-19T20:03:15.195Z,27.22
2018-09-19T20:05:39.249Z,27.05
2018-09-19T20:08:03.455Z,27.17
2018-09-19T20:10:27.465Z,27.13
2018-09-19T20:12:51.330Z,27.05
2018-09-19T20:15:15.260Z,26.92
2018-09-19T20:17:39.153Z,26.84
2018-09-19T20:20:03.209Z,26.92
2018-09-19T20:22:27.167Z,26.74
2018-09-19T20:24:51.076Z,26.89
2018-09-19T20:27:15.046Z,26.38
2018-09-19T20:29:38.992Z,26.54
2018-09-19T20:32:02.936Z,26.61
2018-09-19T20:34:26.923Z,26.23
2018-09-19T20:36:50.989Z,26.46
2018-09-19T20:39:14.916Z,26.63
2018-09-19T20:41:38.891Z,26.61
2018-09-19T20:44:02.800Z,26.24
2018-09-19T20:46:26.675Z,26.40
2018-09-19T20:48:50.670Z,26.25
2018-09-19T20:51:14.546Z,26.15
2018-09-19T20:53:38.701Z,26.02
2018-09-19T20:56:02.631Z,26.11
2018-09-19T20:58:26.560Z,26.16
2018-09-19T21:00:50.555Z,26.03
2018-09-19T21:03:14.458Z,26.14
2018-09-19T21:05:38.426Z,25.94
2018-09-19T21:08:02.375Z,25.94
2018-09-19T21:10:26.312Z,26.00
2018-09-19T21:12:50.254Z,25.56
2018-09-19T21:15:14.170Z,25.59
2018-09-19T21:17:38.086Z,25.51
2018-09-19T21:20:01.992Z,25.72
2018-09-19T21:22:26.093Z,25.50
2018-09-19T21:24:49.879Z,25.53
2018-09-19T21:27:13.777Z,25.43
2018-09-19T21:29:37.700Z,25.29
2018-09-19T21:32:01.628Z,25.60
2018-09-19T21:34:25.604Z,25.19
2018-09-19T21:36:49.474Z,25.21
2018-09-19T21:39:13.372Z,25.08
2018-09-19T21:41:37.476Z,24.95
2018-09-19T21:44:01.469Z,25.21
2018-09-19T21:46:25.440Z,25.08
2018-09-19T21:48:49.310Z,24.83
2018-09-19T21:51:13.273Z,25.09
2018-09-19T21:53:37.172Z,25.13
2018-09-19T21:56:01.132Z,25.22
2018-09-19T21:58:25.063Z,25.24
2018-09-19T22:00:54.316Z,25.08
2018-09-19T22:03:18.481Z,25.00
2018-09-19T22:05:42.382Z,25.08
2018-09-19T22:08:06.323Z,24.86
2018-09-19T22:10:30.574Z,24.70
2018-09-19T22:12:54.455Z,24.67
2018-09-19T22:15:18.363Z,25.12
2018-09-19T22:17:42.303Z,25.14
2018-09-19T22:20:06.240Z,24.86
2018-09-19T22:22:30.146Z,24.88
2018-09-19T22:24:54.064Z,24.96
2018-09-19T22:27:17.943Z,25.24
2018-09-19T22:29:41.815Z,25.23
2018-09-19T22:32:05.692Z,25.27
2018-09-19T22:34:29.631Z,25.08
2018-09-19T22:36:53.500Z,25.19
2018-09-19T22:39:17.385Z,25.25
2018-09-19T22:41:41.286Z,25.04
2018-09-19T22:44:05.315Z,24.04
2018-09-19T22:46:29.237Z,23.58
2018-09-19T22:48:53.136Z,23.51
2018-09-19T22:51:17.118Z,23.43
2018-09-19T22:53:41.013Z,23.51
2018-09-19T22:56:05.029Z,23.32
2018-09-19T22:58:28.923Z,23.44
2018-09-19T23:00:52.837Z,23.15
2018-09-19T23:03:16.762Z,23.60
2018-09-19T23:05:40.669Z,23.96
2018-09-19T23:08:04.586Z,23.91
2018-09-19T23:10:28.452Z,23.91
2018-09-19T23:12:52.415Z,24.00
2018-09-19T23:15:16.312Z,23.41
2018-09-19T23:17:40.184Z,23.68
2018-09-19T23:20:04.465Z,23.28
2018-09-19T23:22:28.351Z,23.19
2018-09-19T23:24:52.339Z,23.17
2018-09-19T23:27:16.251Z,23.18
2018-09-19T23:29:40.182Z,24.09
2018-09-19T23:32:04.098Z,24.10
2018-09-19T23:34:27.961Z,24.22
2018-09-19T23:36:51.897Z,24.13
2018-09-19T23:39:15.831Z,24.30
2018-09-19T23:41:39.728Z,24.22
2018-09-19T23:44:03.614Z,24.29
2018-09-19T23:46:27.536Z,24.09
2018-09-19T23:48:51.431Z,24.24
2018-09-19T23:51:15.333Z,24.32
2018-09-19T23:53:39.214Z,24.30
2018-09-19T23:56:03.275Z,23.82
2018-09-19T23:58:27.154Z,22.91
